Portada
METAR-TAF:

METAR-TAF

Aeropuertos :

Curazao, Antillas Neerlandesas

Aeropuerto Internacional Hato

latitud: 12-12N, longitud: 068-58W, altitud: 9 m

Observación

El informe se hizo hace 32 minutos, a las 22:00 UTC
Viento 9 kt del este
Temperatura 29°C
Humedad 79%
Presión 1012 hPa
Visibilidad 10 km o más
Escasas nubes a una altura de 2000 ft

METAR: TNCC 222200Z 08009KT 9999 FEW020 29/25 Q1012 NOSIG

Hora: 18:32 (22:32 UTC)

Pronóstico

El informe se hizo hace 6 horas y 32 minutos, a las 16:00 UTC
Pronóstico válido del 22 a las 18 UTC al 23 a las 18 UTC
Viento 15 kt del este-sureste
Visibilidad 10 km o más
Nubes dispersas a una altura de 2000 ft

TAF: TNCC 221600Z 2218/2318 11015KT 9999 SCT020

Observaciones y pronósticos meteorológicos de más de 4000 aeropuertos (mensajes METAR y TAF).

Los puntos amarillos y rojos representan las estaciones disponibles.

Ponga el ratón en el punto deseado para ver el nombre de la estación.

Haga clic para ver las observaciones y los pronósticos meteorológicos.

Para cambiar el mapa : haga clic en los botones verdes con una cruz de color negro para hacer un zoom, en el botón verde con un guión para alejar o en las flechas verdes para mapas adyacentes.


METAR-TAF: